sensor_id;sensor_type;location;lat;lon;timestamp;P1;durP1;ratioP1;P2;durP2;ratioP2
43646;SDS011;56152;49.996;18.980;2023-02-01T00:01:42;11.50;;;5.97;;
43646;SDS011;56152;49.996;18.980;2023-02-01T00:06:44;12.43;;;6.57;;
43646;SDS011;56152;49.996;18.980;2023-02-01T00:11:46;14.10;;;6.23;;
43646;SDS011;56152;49.996;18.980;2023-02-01T00:27:11;11.10;;;7.63;;
43646;SDS011;56152;49.996;18.980;2023-02-01T00:32:23;9.93;;;6.60;;
43646;SDS011;56152;49.996;18.980;2023-02-01T00:37:25;9.20;;;6.27;;
43646;SDS011;56152;49.996;18.980;2023-02-01T00:42:28;10.77;;;6.27;;
43646;SDS011;56152;49.996;18.980;2023-02-01T00:47:33;10.70;;;6.40;;
43646;SDS011;56152;49.996;18.980;2023-02-01T00:52:35;9.67;;;6.27;;
43646;SDS011;56152;49.996;18.980;2023-02-01T00:57:37;13.13;;;7.00;;
43646;SDS011;56152;49.996;18.980;2023-02-01T01:02:40;10.33;;;6.30;;
43646;SDS011;56152;49.996;18.980;2023-02-01T01:12:49;13.57;;;6.83;;
43646;SDS011;56152;49.996;18.980;2023-02-01T01:17:56;10.77;;;7.00;;
43646;SDS011;56152;49.996;18.980;2023-02-01T01:23:01;11.07;;;6.13;;
43646;SDS011;56152;49.996;18.980;2023-02-01T01:28:15;8.83;;;5.03;;
43646;SDS011;56152;49.996;18.980;2023-02-01T01:33:19;14.23;;;7.83;;
43646;SDS011;56152;49.996;18.980;2023-02-01T01:38:23;15.20;;;7.87;;
43646;SDS011;56152;49.996;18.980;2023-02-01T01:48:51;3.67;;;2.17;;
43646;SDS011;56152;49.996;18.980;2023-02-01T01:54:05;2.50;;;1.70;;
43646;SDS011;56152;49.996;18.980;2023-02-01T01:59:14;2.53;;;1.45;;
43646;SDS011;56152;49.996;18.980;2023-02-01T02:04:22;6.73;;;1.70;;
43646;SDS011;56152;49.996;18.980;2023-02-01T02:09:24;3.43;;;1.50;;
43646;SDS011;56152;49.996;18.980;2023-02-01T02:14:27;7.50;;;2.80;;
43646;SDS011;56152;49.996;18.980;2023-02-01T02:19:46;6.73;;;2.60;;
43646;SDS011;56152;49.996;18.980;2023-02-01T02:31:03;7.13;;;2.67;;
43646;SDS011;56152;49.996;18.980;2023-02-01T02:36:25;10.70;;;4.20;;
43646;SDS011;56152;49.996;18.980;2023-02-01T02:41:38;7.93;;;2.77;;
43646;SDS011;56152;49.996;18.980;2023-02-01T02:47:10;13.20;;;3.23;;
43646;SDS011;56152;49.996;18.980;2023-02-01T02:52:26;12.30;;;3.40;;
43646;SDS011;56152;49.996;18.980;2023-02-01T02:58:01;12.07;;;3.83;;
43646;SDS011;56152;49.996;18.980;2023-02-01T03:03:22;10.47;;;3.47;;
43646;SDS011;56152;49.996;18.980;2023-02-01T03:08:44;5.93;;;2.87;;
43646;SDS011;56152;49.996;18.980;2023-02-01T03:13:47;7.03;;;4.03;;
43646;SDS011;56152;49.996;18.980;2023-02-01T03:18:53;8.50;;;4.80;;
43646;SDS011;56152;49.996;18.980;2023-02-01T03:29:11;5.80;;;4.43;;
43646;SDS011;56152;49.996;18.980;2023-02-01T03:34:15;6.13;;;3.80;;
43646;SDS011;56152;49.996;18.980;2023-02-01T03:44:34;6.83;;;3.73;;
43646;SDS011;56152;49.996;18.980;2023-02-01T03:49:43;8.63;;;4.27;;
43646;SDS011;56152;49.996;18.980;2023-02-01T03:54:49;10.67;;;5.50;;
43646;SDS011;56152;49.996;18.980;2023-02-01T03:59:53;14.37;;;7.53;;
43646;SDS011;56152;49.996;18.980;2023-02-01T04:05:04;9.80;;;5.27;;
43646;SDS011;56152;49.996;18.980;2023-02-01T04:10:14;8.50;;;5.50;;
43646;SDS011;56152;49.996;18.980;2023-02-01T04:15:18;8.63;;;5.53;;
43646;SDS011;56152;49.996;18.980;2023-02-01T04:20:22;19.60;;;9.60;;
43646;SDS011;56152;49.996;18.980;2023-02-01T04:25:26;13.77;;;8.57;;
43646;SDS011;56152;49.996;18.980;2023-02-01T04:30:28;8.57;;;5.57;;
43646;SDS011;56152;49.996;18.980;2023-02-01T04:35:30;15.03;;;7.60;;
43646;SDS011;56152;49.996;18.980;2023-02-01T04:40:34;13.40;;;8.87;;
43646;SDS011;56152;49.996;18.980;2023-02-01T04:45:46;13.40;;;7.10;;
43646;SDS011;56152;49.996;18.980;2023-02-01T04:50:49;14.53;;;7.77;;
43646;SDS011;56152;49.996;18.980;2023-02-01T04:55:55;19.40;;;10.77;;
43646;SDS011;56152;49.996;18.980;2023-02-01T05:00:58;23.40;;;12.03;;
43646;SDS011;56152;49.996;18.980;2023-02-01T05:06:03;17.87;;;11.37;;
43646;SDS011;56152;49.996;18.980;2023-02-01T05:11:08;17.33;;;6.87;;
43646;SDS011;56152;49.996;18.980;2023-02-01T05:16:33;13.10;;;5.67;;
43646;SDS011;56152;49.996;18.980;2023-02-01T05:21:35;15.83;;;7.10;;
43646;SDS011;56152;49.996;18.980;2023-02-01T05:26:41;15.00;;;6.37;;
43646;SDS011;56152;49.996;18.980;2023-02-01T05:31:47;13.23;;;4.50;;
43646;SDS011;56152;49.996;18.980;2023-02-01T05:36:49;15.37;;;4.90;;
43646;SDS011;56152;49.996;18.980;2023-02-01T05:41:54;10.47;;;3.83;;
43646;SDS011;56152;49.996;18.980;2023-02-01T05:46:57;13.17;;;4.07;;
43646;SDS011;56152;49.996;18.980;2023-02-01T05:51:59;7.87;;;3.87;;
43646;SDS011;56152;49.996;18.980;2023-02-01T05:57:02;11.80;;;3.53;;
43646;SDS011;56152;49.996;18.980;2023-02-01T06:02:05;9.53;;;3.43;;
43646;SDS011;56152;49.996;18.980;2023-02-01T06:07:07;11.17;;;4.77;;
43646;SDS011;56152;49.996;18.980;2023-02-01T06:12:12;17.43;;;5.17;;
43646;SDS011;56152;49.996;18.980;2023-02-01T06:17:14;12.10;;;4.13;;
43646;SDS011;56152;49.996;18.980;2023-02-01T06:22:16;14.40;;;4.17;;
43646;SDS011;56152;49.996;18.980;2023-02-01T06:27:21;11.30;;;4.17;;
43646;SDS011;56152;49.996;18.980;2023-02-01T06:32:25;4.57;;;2.87;;
43646;SDS011;56152;49.996;18.980;2023-02-01T06:37:30;7.17;;;3.50;;
43646;SDS011;56152;49.996;18.980;2023-02-01T06:42:33;13.97;;;4.20;;
43646;SDS011;56152;49.996;18.980;2023-02-01T06:47:35;10.13;;;3.40;;
43646;SDS011;56152;49.996;18.980;2023-02-01T06:52:37;6.50;;;3.53;;
43646;SDS011;56152;49.996;18.980;2023-02-01T06:57:41;9.33;;;3.50;;
43646;SDS011;56152;49.996;18.980;2023-02-01T07:02:46;5.10;;;3.40;;
43646;SDS011;56152;49.996;18.980;2023-02-01T07:07:48;8.03;;;3.83;;
43646;SDS011;56152;49.996;18.980;2023-02-01T07:12:52;8.17;;;3.93;;
43646;SDS011;56152;49.996;18.980;2023-02-01T07:17:57;7.67;;;4.20;;
43646;SDS011;56152;49.996;18.980;2023-02-01T07:22:59;9.07;;;4.57;;
43646;SDS011;56152;49.996;18.980;2023-02-01T07:28:03;10.20;;;4.80;;
43646;SDS011;56152;49.996;18.980;2023-02-01T07:33:06;9.37;;;4.50;;
43646;SDS011;56152;49.996;18.980;2023-02-01T07:38:08;8.33;;;3.97;;
43646;SDS011;56152;49.996;18.980;2023-02-01T07:43:12;12.10;;;4.87;;
43646;SDS011;56152;49.996;18.980;2023-02-01T07:48:14;11.13;;;5.27;;
43646;SDS011;56152;49.996;18.980;2023-02-01T07:53:16;9.33;;;3.80;;
43646;SDS011;56152;49.996;18.980;2023-02-01T07:58:19;8.43;;;3.77;;
43646;SDS011;56152;49.996;18.980;2023-02-01T08:03:24;7.00;;;3.90;;
43646;SDS011;56152;49.996;18.980;2023-02-01T08:08:26;7.50;;;3.60;;
43646;SDS011;56152;49.996;18.980;2023-02-01T08:13:30;9.27;;;3.30;;
43646;SDS011;56152;49.996;18.980;2023-02-01T08:18:32;10.67;;;4.50;;
43646;SDS011;56152;49.996;18.980;2023-02-01T08:23:35;10.07;;;4.10;;
43646;SDS011;56152;49.996;18.980;2023-02-01T08:28:41;7.47;;;3.43;;
43646;SDS011;56152;49.996;18.980;2023-02-01T08:33:47;7.07;;;3.97;;
43646;SDS011;56152;49.996;18.980;2023-02-01T08:38:50;12.87;;;4.00;;
43646;SDS011;56152;49.996;18.980;2023-02-01T08:43:55;10.37;;;4.33;;
43646;SDS011;56152;49.996;18.980;2023-02-01T08:48:57;11.23;;;4.37;;
43646;SDS011;56152;49.996;18.980;2023-02-01T08:54:00;8.93;;;4.00;;
43646;SDS011;56152;49.996;18.980;2023-02-01T08:59:03;11.40;;;4.17;;
43646;SDS011;56152;49.996;18.980;2023-02-01T09:04:08;6.30;;;3.55;;
43646;SDS011;56152;49.996;18.980;2023-02-01T09:09:10;8.35;;;3.78;;
43646;SDS011;56152;49.996;18.980;2023-02-01T09:14:14;11.70;;;3.57;;
43646;SDS011;56152;49.996;18.980;2023-02-01T09:19:17;10.73;;;4.53;;
43646;SDS011;56152;49.996;18.980;2023-02-01T09:24:19;16.10;;;5.13;;
43646;SDS011;56152;49.996;18.980;2023-02-01T09:29:24;17.63;;;6.17;;
43646;SDS011;56152;49.996;18.980;2023-02-01T09:34:27;22.17;;;8.63;;
43646;SDS011;56152;49.996;18.980;2023-02-01T09:39:29;16.02;;;6.80;;
43646;SDS011;56152;49.996;18.980;2023-02-01T09:44:39;16.83;;;7.53;;
43646;SDS011;56152;49.996;18.980;2023-02-01T09:49:52;11.23;;;4.70;;
43646;SDS011;56152;49.996;18.980;2023-02-01T09:54:59;9.38;;;5.15;;
43646;SDS011;56152;49.996;18.980;2023-02-01T10:00:09;16.93;;;6.30;;
43646;SDS011;56152;49.996;18.980;2023-02-01T10:05:18;8.00;;;4.13;;
43646;SDS011;56152;49.996;18.980;2023-02-01T10:10:28;13.37;;;4.73;;
43646;SDS011;56152;49.996;18.980;2023-02-01T10:15:43;10.57;;;3.67;;
43646;SDS011;56152;49.996;18.980;2023-02-01T10:20:56;10.13;;;4.57;;
43646;SDS011;56152;49.996;18.980;2023-02-01T10:26:04;11.13;;;4.20;;
43646;SDS011;56152;49.996;18.980;2023-02-01T10:31:18;12.67;;;5.00;;
43646;SDS011;56152;49.996;18.980;2023-02-01T10:36:23;12.70;;;4.83;;
43646;SDS011;56152;49.996;18.980;2023-02-01T10:41:33;13.77;;;4.97;;
43646;SDS011;56152;49.996;18.980;2023-02-01T10:46:39;17.40;;;4.60;;
43646;SDS011;56152;49.996;18.980;2023-02-01T10:51:45;11.75;;;4.28;;
43646;SDS011;56152;49.996;18.980;2023-02-01T10:56:51;8.93;;;3.78;;
43646;SDS011;56152;49.996;18.980;2023-02-01T11:01:59;13.82;;;6.28;;
43646;SDS011;56152;49.996;18.980;2023-02-01T11:07:06;14.13;;;6.47;;
43646;SDS011;56152;49.996;18.980;2023-02-01T11:12:23;13.20;;;4.50;;
43646;SDS011;56152;49.996;18.980;2023-02-01T11:17:34;8.95;;;3.65;;
43646;SDS011;56152;49.996;18.980;2023-02-01T11:22:45;11.93;;;4.67;;
43646;SDS011;56152;49.996;18.980;2023-02-01T11:27:48;14.95;;;6.35;;
43646;SDS011;56152;49.996;18.980;2023-02-01T11:32:53;16.10;;;6.85;;
43646;SDS011;56152;49.996;18.980;2023-02-01T11:37:58;14.73;;;6.00;;
43646;SDS011;56152;49.996;18.980;2023-02-01T11:43:01;12.90;;;5.45;;
43646;SDS011;56152;49.996;18.980;2023-02-01T11:48:14;14.87;;;5.90;;
43646;SDS011;56152;49.996;18.980;2023-02-01T11:53:24;13.97;;;6.53;;
43646;SDS011;56152;49.996;18.980;2023-02-01T11:58:38;16.77;;;6.57;;
43646;SDS011;56152;49.996;18.980;2023-02-01T12:09:52;15.98;;;5.22;;
43646;SDS011;56152;49.996;18.980;2023-02-01T12:20:44;12.90;;;6.80;;
43646;SDS011;56152;49.996;18.980;2023-02-01T12:26:03;15.68;;;6.97;;
43646;SDS011;56152;49.996;18.980;2023-02-01T12:31:32;17.00;;;6.00;;
43646;SDS011;56152;49.996;18.980;2023-02-01T12:36:52;11.77;;;5.22;;
43646;SDS011;56152;49.996;18.980;2023-02-01T12:42:01;11.70;;;5.57;;
43646;SDS011;56152;49.996;18.980;2023-02-01T12:47:12;10.98;;;5.70;;
43646;SDS011;56152;49.996;18.980;2023-02-01T12:52:21;8.07;;;3.63;;
43646;SDS011;56152;49.996;18.980;2023-02-01T12:57:30;11.57;;;5.85;;
43646;SDS011;56152;49.996;18.980;2023-02-01T13:02:39;12.68;;;5.15;;
43646;SDS011;56152;49.996;18.980;2023-02-01T13:07:52;12.30;;;5.00;;
43646;SDS011;56152;49.996;18.980;2023-02-01T13:13:02;9.75;;;4.40;;
43646;SDS011;56152;49.996;18.980;2023-02-01T13:18:13;9.57;;;4.03;;
43646;SDS011;56152;49.996;18.980;2023-02-01T13:23:24;7.90;;;4.05;;
43646;SDS011;56152;49.996;18.980;2023-02-01T13:28:34;9.30;;;4.40;;
43646;SDS011;56152;49.996;18.980;2023-02-01T13:33:51;7.30;;;3.80;;
43646;SDS011;56152;49.996;18.980;2023-02-01T13:44:49;7.93;;;3.60;;
43646;SDS011;56152;49.996;18.980;2023-02-01T13:49:54;9.00;;;3.35;;
43646;SDS011;56152;49.996;18.980;2023-02-01T14:00:32;6.50;;;3.20;;
43646;SDS011;56152;49.996;18.980;2023-02-01T14:05:56;8.83;;;3.60;;
43646;SDS011;56152;49.996;18.980;2023-02-01T14:11:03;9.18;;;4.28;;
43646;SDS011;56152;49.996;18.980;2023-02-01T14:16:22;9.10;;;4.63;;
43646;SDS011;56152;49.996;18.980;2023-02-01T14:21:28;9.70;;;4.30;;
43646;SDS011;56152;49.996;18.980;2023-02-01T14:26:44;15.30;;;6.63;;
43646;SDS011;56152;49.996;18.980;2023-02-01T14:37:23;15.80;;;8.47;;
43646;SDS011;56152;49.996;18.980;2023-02-01T14:42:28;12.77;;;6.47;;
43646;SDS011;56152;49.996;18.980;2023-02-01T14:47:36;13.70;;;7.23;;
43646;SDS011;56152;49.996;18.980;2023-02-01T14:52:39;22.83;;;7.97;;
43646;SDS011;56152;49.996;18.980;2023-02-01T14:57:44;26.70;;;13.13;;
43646;SDS011;56152;49.996;18.980;2023-02-01T15:02:53;19.00;;;10.43;;
43646;SDS011;56152;49.996;18.980;2023-02-01T15:07:57;18.60;;;10.60;;
43646;SDS011;56152;49.996;18.980;2023-02-01T15:13:02;21.07;;;10.53;;
43646;SDS011;56152;49.996;18.980;2023-02-01T15:18:14;20.23;;;11.00;;
43646;SDS011;56152;49.996;18.980;2023-02-01T15:23:18;15.27;;;9.47;;
43646;SDS011;56152;49.996;18.980;2023-02-01T15:28:21;13.53;;;8.57;;
43646;SDS011;56152;49.996;18.980;2023-02-01T15:33:26;16.43;;;9.43;;
43646;SDS011;56152;49.996;18.980;2023-02-01T15:38:34;16.03;;;9.63;;
43646;SDS011;56152;49.996;18.980;2023-02-01T15:43:39;18.07;;;8.90;;
43646;SDS011;56152;49.996;18.980;2023-02-01T15:48:46;27.13;;;16.97;;
43646;SDS011;56152;49.996;18.980;2023-02-01T15:53:51;18.07;;;10.17;;
43646;SDS011;56152;49.996;18.980;2023-02-01T15:58:59;19.43;;;8.80;;
43646;SDS011;56152;49.996;18.980;2023-02-01T16:04:19;26.43;;;13.30;;
43646;SDS011;56152;49.996;18.980;2023-02-01T16:09:23;27.38;;;12.85;;
43646;SDS011;56152;49.996;18.980;2023-02-01T16:14:27;51.63;;;28.30;;
43646;SDS011;56152;49.996;18.980;2023-02-01T16:19:31;30.37;;;15.23;;
43646;SDS011;56152;49.996;18.980;2023-02-01T16:24:33;29.73;;;15.37;;
43646;SDS011;56152;49.996;18.980;2023-02-01T16:29:36;26.23;;;12.93;;
43646;SDS011;56152;49.996;18.980;2023-02-01T16:34:40;21.53;;;12.00;;
43646;SDS011;56152;49.996;18.980;2023-02-01T16:39:43;25.70;;;11.77;;
43646;SDS011;56152;49.996;18.980;2023-02-01T16:44:45;25.93;;;11.33;;
43646;SDS011;56152;49.996;18.980;2023-02-01T16:49:50;34.27;;;15.50;;
43646;SDS011;56152;49.996;18.980;2023-02-01T16:54:56;43.88;;;16.20;;
43646;SDS011;56152;49.996;18.980;2023-02-01T16:59:58;38.93;;;16.93;;
43646;SDS011;56152;49.996;18.980;2023-02-01T17:05:06;43.97;;;19.58;;
43646;SDS011;56152;49.996;18.980;2023-02-01T17:10:11;56.63;;;26.70;;
43646;SDS011;56152;49.996;18.980;2023-02-01T17:15:24;39.00;;;18.13;;
43646;SDS011;56152;49.996;18.980;2023-02-01T17:20:30;40.13;;;18.05;;
43646;SDS011;56152;49.996;18.980;2023-02-01T17:25:33;37.60;;;16.52;;
43646;SDS011;56152;49.996;18.980;2023-02-01T17:30:36;28.87;;;14.00;;
43646;SDS011;56152;49.996;18.980;2023-02-01T17:35:41;16.23;;;10.13;;
43646;SDS011;56152;49.996;18.980;2023-02-01T17:40:43;20.30;;;11.60;;
43646;SDS011;56152;49.996;18.980;2023-02-01T17:45:48;22.07;;;10.27;;
43646;SDS011;56152;49.996;18.980;2023-02-01T17:50:54;27.43;;;15.27;;
43646;SDS011;56152;49.996;18.980;2023-02-01T17:55:58;21.03;;;10.33;;
43646;SDS011;56152;49.996;18.980;2023-02-01T18:01:01;23.10;;;10.77;;
43646;SDS011;56152;49.996;18.980;2023-02-01T18:06:05;25.93;;;12.43;;
43646;SDS011;56152;49.996;18.980;2023-02-01T18:11:12;17.53;;;9.23;;
43646;SDS011;56152;49.996;18.980;2023-02-01T18:16:16;21.00;;;8.73;;
43646;SDS011;56152;49.996;18.980;2023-02-01T18:21:21;21.37;;;9.50;;
43646;SDS011;56152;49.996;18.980;2023-02-01T18:26:24;14.30;;;7.00;;
43646;SDS011;56152;49.996;18.980;2023-02-01T18:31:26;12.67;;;5.67;;
43646;SDS011;56152;49.996;18.980;2023-02-01T18:36:33;9.80;;;5.57;;
43646;SDS011;56152;49.996;18.980;2023-02-01T18:41:36;13.40;;;5.43;;
43646;SDS011;56152;49.996;18.980;2023-02-01T18:46:41;11.13;;;5.70;;
43646;SDS011;56152;49.996;18.980;2023-02-01T18:51:45;11.37;;;6.23;;
43646;SDS011;56152;49.996;18.980;2023-02-01T18:56:47;14.03;;;6.03;;
43646;SDS011;56152;49.996;18.980;2023-02-01T19:01:49;13.57;;;6.27;;
43646;SDS011;56152;49.996;18.980;2023-02-01T19:06:54;14.60;;;7.47;;
43646;SDS011;56152;49.996;18.980;2023-02-01T19:11:59;15.23;;;7.63;;
43646;SDS011;56152;49.996;18.980;2023-02-01T19:17:11;15.97;;;6.83;;
43646;SDS011;56152;49.996;18.980;2023-02-01T19:22:16;14.73;;;6.73;;
43646;SDS011;56152;49.996;18.980;2023-02-01T19:27:21;13.47;;;6.33;;
43646;SDS011;56152;49.996;18.980;2023-02-01T19:32:23;14.07;;;7.53;;
43646;SDS011;56152;49.996;18.980;2023-02-01T19:37:27;13.87;;;6.90;;
43646;SDS011;56152;49.996;18.980;2023-02-01T19:42:29;14.47;;;6.23;;
43646;SDS011;56152;49.996;18.980;2023-02-01T19:47:31;15.57;;;6.00;;
43646;SDS011;56152;49.996;18.980;2023-02-01T19:52:35;13.48;;;6.32;;
43646;SDS011;56152;49.996;18.980;2023-02-01T19:57:37;14.93;;;5.50;;
43646;SDS011;56152;49.996;18.980;2023-02-01T20:02:40;13.50;;;5.47;;
43646;SDS011;56152;49.996;18.980;2023-02-01T20:07:45;13.00;;;5.00;;
43646;SDS011;56152;49.996;18.980;2023-02-01T20:12:50;20.70;;;7.20;;
43646;SDS011;56152;49.996;18.980;2023-02-01T20:17:52;13.33;;;5.23;;
43646;SDS011;56152;49.996;18.980;2023-02-01T20:22:56;17.60;;;6.10;;
43646;SDS011;56152;49.996;18.980;2023-02-01T20:27:58;13.02;;;6.28;;
43646;SDS011;56152;49.996;18.980;2023-02-01T20:33:00;14.00;;;6.35;;
43646;SDS011;56152;49.996;18.980;2023-02-01T20:38:04;13.10;;;5.43;;
43646;SDS011;56152;49.996;18.980;2023-02-01T20:43:09;11.95;;;5.28;;
43646;SDS011;56152;49.996;18.980;2023-02-01T20:48:11;12.87;;;4.93;;
43646;SDS011;56152;49.996;18.980;2023-02-01T20:53:16;12.32;;;4.65;;
43646;SDS011;56152;49.996;18.980;2023-02-01T20:58:18;10.03;;;4.30;;
43646;SDS011;56152;49.996;18.980;2023-02-01T21:03:21;14.93;;;5.77;;
43646;SDS011;56152;49.996;18.980;2023-02-01T21:08:26;12.27;;;5.60;;
43646;SDS011;56152;49.996;18.980;2023-02-01T21:13:30;12.93;;;5.57;;
43646;SDS011;56152;49.996;18.980;2023-02-01T21:18:35;12.90;;;4.97;;
43646;SDS011;56152;49.996;18.980;2023-02-01T21:23:39;15.90;;;7.63;;
43646;SDS011;56152;49.996;18.980;2023-02-01T21:28:47;15.30;;;7.27;;
43646;SDS011;56152;49.996;18.980;2023-02-01T21:33:52;18.43;;;11.17;;
43646;SDS011;56152;49.996;18.980;2023-02-01T21:39:01;16.47;;;7.93;;
43646;SDS011;56152;49.996;18.980;2023-02-01T21:44:09;23.00;;;11.13;;
43646;SDS011;56152;49.996;18.980;2023-02-01T21:49:14;17.97;;;7.60;;
43646;SDS011;56152;49.996;18.980;2023-02-01T21:54:21;14.93;;;5.50;;
43646;SDS011;56152;49.996;18.980;2023-02-01T21:59:23;9.87;;;4.23;;
43646;SDS011;56152;49.996;18.980;2023-02-01T22:04:32;9.17;;;4.30;;
43646;SDS011;56152;49.996;18.980;2023-02-01T22:09:37;9.77;;;4.63;;
43646;SDS011;56152;49.996;18.980;2023-02-01T22:14:41;12.10;;;3.87;;
43646;SDS011;56152;49.996;18.980;2023-02-01T22:19:57;8.87;;;4.07;;
43646;SDS011;56152;49.996;18.980;2023-02-01T22:25:05;10.60;;;4.63;;
43646;SDS011;56152;49.996;18.980;2023-02-01T22:30:09;10.53;;;4.07;;
43646;SDS011;56152;49.996;18.980;2023-02-01T22:40:28;10.90;;;4.30;;
43646;SDS011;56152;49.996;18.980;2023-02-01T22:45:32;9.43;;;4.57;;
43646;SDS011;56152;49.996;18.980;2023-02-01T22:50:36;9.63;;;4.53;;
43646;SDS011;56152;49.996;18.980;2023-02-01T22:55:40;9.20;;;4.13;;
43646;SDS011;56152;49.996;18.980;2023-02-01T23:00:44;12.33;;;4.07;;
43646;SDS011;56152;49.996;18.980;2023-02-01T23:05:49;9.27;;;4.90;;
43646;SDS011;56152;49.996;18.980;2023-02-01T23:11:00;13.70;;;5.90;;
43646;SDS011;56152;49.996;18.980;2023-02-01T23:16:04;10.37;;;4.63;;
43646;SDS011;56152;49.996;18.980;2023-02-01T23:21:09;10.20;;;4.50;;
43646;SDS011;56152;49.996;18.980;2023-02-01T23:26:16;10.70;;;4.80;;
43646;SDS011;56152;49.996;18.980;2023-02-01T23:31:19;11.93;;;4.97;;
43646;SDS011;56152;49.996;18.980;2023-02-01T23:36:23;10.10;;;6.00;;
43646;SDS011;56152;49.996;18.980;2023-02-01T23:41:29;12.87;;;6.43;;
43646;SDS011;56152;49.996;18.980;2023-02-01T23:46:32;18.97;;;8.37;;
43646;SDS011;56152;49.996;18.980;2023-02-01T23:51:37;20.47;;;8.23;;
43646;SDS011;56152;49.996;18.980;2023-02-01T23:56:41;16.03;;;6.87;;
